createdAt,value
2018-08-30T00:01:41.618Z,29.80
2018-08-30T00:04:09.933Z,28.93
2018-08-30T00:06:38.263Z,31.47
2018-08-30T00:09:06.960Z,32.27
2018-08-30T00:11:35.305Z,29.10
2018-08-30T00:14:03.748Z,30.47
2018-08-30T00:16:32.087Z,31.57
2018-08-30T00:19:00.415Z,31.03
2018-08-30T00:21:28.710Z,29.67
2018-08-30T00:23:57.028Z,31.60
2018-08-30T00:26:25.452Z,31.93
2018-08-30T00:28:53.710Z,29.47
2018-08-30T00:31:22.046Z,29.77
2018-08-30T00:33:50.439Z,30.03
2018-08-30T00:36:18.816Z,27.70
2018-08-30T00:38:47.105Z,26.07
2018-08-30T00:41:15.473Z,25.23
2018-08-30T00:43:43.743Z,22.60
2018-08-30T00:46:12.072Z,22.67
2018-08-30T00:48:40.381Z,20.63
2018-08-30T00:51:08.700Z,20.17
2018-08-30T00:53:37.051Z,17.63
2018-08-30T00:56:05.373Z,17.40
2018-08-30T00:58:33.718Z,18.27
2018-08-30T01:01:02.177Z,19.70
2018-08-30T01:03:30.574Z,20.47
2018-08-30T01:05:58.908Z,18.77
2018-08-30T01:08:27.199Z,20.00
2018-08-30T01:10:55.508Z,17.03
2018-08-30T01:13:23.962Z,16.03
2018-08-30T01:15:52.357Z,14.73
2018-08-30T01:18:20.702Z,13.43
2018-08-30T01:20:49.005Z,14.97
2018-08-30T01:23:17.318Z,13.27
2018-08-30T01:25:45.621Z,13.67
2018-08-30T01:28:13.952Z,13.33
2018-08-30T01:30:42.310Z,13.20
2018-08-30T01:33:10.636Z,14.70
2018-08-30T01:35:38.945Z,12.53
2018-08-30T01:38:07.289Z,13.20
2018-08-30T01:40:35.849Z,10.67
2018-08-30T01:43:04.227Z,10.63
2018-08-30T01:45:32.627Z,10.57
2018-08-30T01:48:01.030Z,10.40
2018-08-30T01:50:29.317Z,10.87
2018-08-30T01:52:57.725Z,12.50
2018-08-30T01:55:26.041Z,14.00
2018-08-30T01:57:54.354Z,12.40
2018-08-30T02:00:22.753Z,14.10
2018-08-30T02:02:51.168Z,13.07
2018-08-30T02:05:19.522Z,12.90
2018-08-30T02:07:47.950Z,12.63
2018-08-30T02:10:16.429Z,11.67
2018-08-30T02:12:44.914Z,10.60
2018-08-30T02:15:13.324Z,11.53
2018-08-30T02:17:41.783Z,10.67
2018-08-30T02:20:10.161Z,11.37
2018-08-30T02:22:38.482Z,10.97
2018-08-30T02:25:06.810Z,9.80
2018-08-30T02:27:35.277Z,10.43
2018-08-30T02:30:03.606Z,9.20
2018-08-30T02:32:32.049Z,9.50
2018-08-30T02:35:00.356Z,9.53
2018-08-30T02:37:28.778Z,8.60
2018-08-30T02:39:57.077Z,9.10
2018-08-30T02:42:25.360Z,9.20
2018-08-30T02:44:53.766Z,9.67
2018-08-30T02:47:22.108Z,8.67
2018-08-30T02:49:50.481Z,7.60
2018-08-30T02:52:18.912Z,8.53
2018-08-30T02:54:47.240Z,7.93
2018-08-30T02:57:15.553Z,7.53
2018-08-30T02:59:43.857Z,8.70
2018-08-30T03:02:12.223Z,8.97
2018-08-30T03:04:40.722Z,8.47
2018-08-30T03:07:09.137Z,8.63
2018-08-30T03:09:37.449Z,8.30
2018-08-30T03:12:06.149Z,8.00
2018-08-30T03:14:34.666Z,7.70
2018-08-30T03:17:03.020Z,8.30
2018-08-30T03:19:31.478Z,9.10
2018-08-30T03:22:00.017Z,7.20
2018-08-30T03:24:28.515Z,6.83
2018-08-30T03:26:56.850Z,6.50
2018-08-30T03:29:25.457Z,7.83
2018-08-30T03:31:54.026Z,7.90
2018-08-30T03:34:22.393Z,7.27
2018-08-30T03:36:50.817Z,7.23
2018-08-30T03:39:19.114Z,6.70
2018-08-30T03:41:47.554Z,7.30
2018-08-30T03:44:15.861Z,7.50
2018-08-30T03:46:44.227Z,7.90
2018-08-30T03:49:12.586Z,7.37
2018-08-30T03:51:41.013Z,7.60
2018-08-30T03:54:09.402Z,8.67
2018-08-30T03:56:37.773Z,8.50
2018-08-30T03:59:06.153Z,8.63
2018-08-30T04:01:34.532Z,9.10
2018-08-30T04:04:03.181Z,8.60
2018-08-30T04:06:31.497Z,9.13
2018-08-30T04:09:00.037Z,9.70
2018-08-30T04:11:28.822Z,11.00
2018-08-30T04:13:57.113Z,11.57
2018-08-30T04:16:25.442Z,11.47
2018-08-30T04:18:58.848Z,10.60
2018-08-30T04:21:27.177Z,11.20
2018-08-30T04:23:55.611Z,11.30
2018-08-30T04:26:24.044Z,12.20
2018-08-30T04:28:52.374Z,12.70
2018-08-30T04:31:20.886Z,13.10
2018-08-30T04:33:49.165Z,12.17
2018-08-30T04:36:17.885Z,14.10
2018-08-30T04:38:46.287Z,14.77
2018-08-30T04:41:14.881Z,13.63
2018-08-30T04:43:43.261Z,14.80
2018-08-30T04:46:11.740Z,13.70
2018-08-30T04:48:40.079Z,14.23
2018-08-30T04:51:08.667Z,13.77
2018-08-30T04:53:37.299Z,14.30
2018-08-30T04:56:05.669Z,14.23
2018-08-30T04:58:34.727Z,13.67
2018-08-30T05:01:03.045Z,14.67
2018-08-30T05:03:31.529Z,14.80
2018-08-30T05:06:00.651Z,14.47
2018-08-30T05:08:30.122Z,14.40
2018-08-30T05:10:58.560Z,14.40
2018-08-30T05:13:26.937Z,13.23
2018-08-30T05:15:55.269Z,14.30
2018-08-30T05:18:23.645Z,14.93
2018-08-30T05:20:52.073Z,13.07
2018-08-30T05:23:20.424Z,14.70
2018-08-30T05:25:49.060Z,14.50
2018-08-30T05:28:17.696Z,14.33
2018-08-30T05:30:46.035Z,14.20
2018-08-30T05:33:14.353Z,13.90
2018-08-30T05:35:43.057Z,14.93
2018-08-30T05:38:11.548Z,14.47
2018-08-30T05:40:39.876Z,15.27
2018-08-30T05:43:08.464Z,14.37
2018-08-30T05:45:36.799Z,15.17
2018-08-30T05:48:05.272Z,14.60
2018-08-30T05:50:34.401Z,15.67
2018-08-30T05:53:02.765Z,14.77
2018-08-30T05:55:31.221Z,15.13
2018-08-30T05:57:59.525Z,14.23
2018-08-30T06:00:27.846Z,14.40
2018-08-30T06:02:56.219Z,14.60
2018-08-30T06:05:24.766Z,13.60
2018-08-30T06:07:53.216Z,15.20
2018-08-30T06:10:21.578Z,13.30
2018-08-30T06:12:49.960Z,14.60
2018-08-30T06:15:18.285Z,14.03
2018-08-30T06:17:57.440Z,15.63
2018-08-30T06:20:25.928Z,14.17
2018-08-30T06:22:54.305Z,15.17
2018-08-30T06:25:22.809Z,15.23
2018-08-30T06:27:51.164Z,14.27
2018-08-30T06:30:19.684Z,13.20
2018-08-30T06:32:48.081Z,14.33
2018-08-30T06:35:16.520Z,15.17
2018-08-30T06:37:44.880Z,14.50
2018-08-30T06:40:13.290Z,13.70
2018-08-30T06:42:41.637Z,14.70
2018-08-30T06:45:10.721Z,14.40
2018-08-30T06:47:39.062Z,15.03
2018-08-30T06:50:07.453Z,14.33
2018-08-30T06:52:35.844Z,15.07
2018-08-30T06:55:04.177Z,14.50
2018-08-30T06:57:32.816Z,15.13
2018-08-30T07:00:01.294Z,13.70
2018-08-30T07:02:29.619Z,13.27
2018-08-30T07:04:57.994Z,14.63
2018-08-30T07:07:26.297Z,13.70
2018-08-30T07:09:54.692Z,14.50
2018-08-30T07:12:23.411Z,13.80
2018-08-30T07:14:52.082Z,15.13
2018-08-30T07:17:20.482Z,15.13
2018-08-30T07:19:48.948Z,13.73
2018-08-30T07:22:17.398Z,15.50
2018-08-30T07:24:45.758Z,16.03
2018-08-30T07:27:14.119Z,15.60
2018-08-30T07:29:42.579Z,14.43
2018-08-30T07:32:10.966Z,14.63
2018-08-30T07:34:39.401Z,14.87
2018-08-30T07:37:07.857Z,13.87
2018-08-30T07:39:36.189Z,15.33
2018-08-30T07:42:04.658Z,14.50
2018-08-30T07:44:33.043Z,14.87
2018-08-30T07:47:01.350Z,15.70
2018-08-30T07:49:29.836Z,14.93
2018-08-30T07:51:58.187Z,13.57
2018-08-30T07:54:26.546Z,14.10
2018-08-30T07:56:54.844Z,14.27
2018-08-30T07:59:23.229Z,14.70
2018-08-30T08:01:51.520Z,14.70
2018-08-30T08:04:19.934Z,14.80
2018-08-30T08:06:48.286Z,13.80
2018-08-30T08:09:16.630Z,13.00
2018-08-30T08:11:45.067Z,14.70
2018-08-30T08:14:13.592Z,13.33
2018-08-30T08:16:41.949Z,13.20
2018-08-30T08:19:10.329Z,13.83
2018-08-30T08:21:38.821Z,13.53
2018-08-30T08:24:07.521Z,13.47
2018-08-30T08:26:36.473Z,13.60
2018-08-30T08:29:04.940Z,13.13
2018-08-30T08:31:33.586Z,13.23
2018-08-30T08:34:02.160Z,13.30
2018-08-30T08:36:30.600Z,13.40
2018-08-30T08:38:58.965Z,12.27
2018-08-30T08:41:27.344Z,12.80
2018-08-30T08:43:55.785Z,13.63
2018-08-30T08:46:24.206Z,12.37
2018-08-30T08:48:52.592Z,12.80
2018-08-30T08:51:20.899Z,12.37
2018-08-30T08:53:49.448Z,14.23
2018-08-30T08:56:17.713Z,14.63
2018-08-30T08:58:46.152Z,14.60
2018-08-30T09:01:14.505Z,14.70
2018-08-30T09:03:42.904Z,13.20
2018-08-30T09:06:11.354Z,13.87
2018-08-30T09:08:39.823Z,13.40
2018-08-30T09:11:08.136Z,12.60
2018-08-30T09:13:36.749Z,13.80
2018-08-30T09:16:05.055Z,13.00
2018-08-30T09:18:33.553Z,13.07
2018-08-30T09:21:01.799Z,13.33
2018-08-30T09:23:30.137Z,12.90
2018-08-30T09:25:58.456Z,13.83
2018-08-30T09:28:26.833Z,11.80
2018-08-30T09:30:55.226Z,12.67
2018-08-30T09:33:23.672Z,12.57
2018-08-30T09:35:52.013Z,12.27
2018-08-30T09:38:20.366Z,12.40
2018-08-30T09:40:48.803Z,12.30
2018-08-30T09:43:17.174Z,11.77
2018-08-30T09:45:45.512Z,11.43
2018-08-30T09:48:13.846Z,10.63
2018-08-30T09:50:42.200Z,12.70
2018-08-30T09:53:10.503Z,11.30
2018-08-30T09:55:39.060Z,10.70
2018-08-30T09:58:07.352Z,12.10
2018-08-30T10:00:41.006Z,10.70
2018-08-30T10:03:09.360Z,10.97
2018-08-30T10:05:37.707Z,11.40
2018-08-30T10:08:06.049Z,10.20
2018-08-30T10:10:34.435Z,12.07
2018-08-30T10:13:02.878Z,11.47
2018-08-30T10:15:31.537Z,11.37
2018-08-30T10:18:00.231Z,11.53
2018-08-30T10:20:28.579Z,11.13
2018-08-30T10:22:56.866Z,10.90
2018-08-30T10:25:25.280Z,12.30
2018-08-30T10:27:53.604Z,11.47
2018-08-30T10:30:22.108Z,11.77
2018-08-30T10:32:50.494Z,11.17
2018-08-30T10:35:18.870Z,11.20
2018-08-30T10:37:51.102Z,10.77
2018-08-30T10:40:19.474Z,12.30
2018-08-30T10:42:47.837Z,11.27
2018-08-30T10:45:16.150Z,11.30
2018-08-30T10:47:44.603Z,11.87
2018-08-30T10:50:12.919Z,12.70
2018-08-30T10:52:41.235Z,11.57
2018-08-30T10:55:09.529Z,10.50
2018-08-30T10:57:38.024Z,10.80
2018-08-30T11:00:06.369Z,10.80
2018-08-30T11:02:34.736Z,10.70
2018-08-30T11:05:03.052Z,10.60
2018-08-30T11:07:31.476Z,10.57
2018-08-30T11:10:00.816Z,10.03
2018-08-30T11:12:29.132Z,9.50
2018-08-30T11:14:57.473Z,10.70
2018-08-30T11:17:26.164Z,10.70
2018-08-30T11:19:54.635Z,9.53
2018-08-30T11:22:22.958Z,9.60
2018-08-30T11:24:51.332Z,10.20
2018-08-30T11:27:19.696Z,10.70
2018-08-30T11:29:48.465Z,9.47
2018-08-30T11:32:18.519Z,10.67
2018-08-30T11:34:46.941Z,8.53
2018-08-30T11:37:15.436Z,8.90
2018-08-30T11:39:43.768Z,9.00
2018-08-30T11:42:12.090Z,9.57
2018-08-30T11:44:40.443Z,8.80
2018-08-30T11:47:11.960Z,8.30
2018-08-30T11:49:40.509Z,8.60
2018-08-30T11:52:08.887Z,8.40
2018-08-30T11:54:37.224Z,7.40
2018-08-30T11:57:05.625Z,7.90
2018-08-30T11:59:33.987Z,5.83
2018-08-30T12:02:02.730Z,4.87
2018-08-30T12:04:31.069Z,5.23
2018-08-30T12:06:59.459Z,3.90
2018-08-30T12:09:27.752Z,4.80
2018-08-30T12:11:56.151Z,5.43
2018-08-30T12:14:24.468Z,6.03
2018-08-30T12:16:52.809Z,5.90
2018-08-30T12:19:21.205Z,6.77
2018-08-30T12:21:49.567Z,6.63
2018-08-30T12:24:17.886Z,5.90
2018-08-30T12:26:46.596Z,7.37
2018-08-30T12:29:15.022Z,6.20
2018-08-30T12:31:43.356Z,7.23
2018-08-30T12:34:11.794Z,6.73
2018-08-30T12:36:40.192Z,7.07
2018-08-30T12:39:10.164Z,6.73
2018-08-30T12:41:38.881Z,7.00
2018-08-30T12:44:07.224Z,6.90
2018-08-30T12:46:35.783Z,6.97
2018-08-30T12:49:04.245Z,6.00
2018-08-30T12:51:33.629Z,6.57
2018-08-30T12:54:02.185Z,5.40
2018-08-30T12:56:30.631Z,5.87
2018-08-30T12:59:04.485Z,6.27
2018-08-30T13:01:33.127Z,6.50
2018-08-30T13:04:02.671Z,6.40
2018-08-30T13:06:31.510Z,5.27
2018-08-30T13:09:00.217Z,5.60
2018-08-30T13:11:28.482Z,6.27
2018-08-30T13:13:57.804Z,6.10
2018-08-30T13:16:26.211Z,5.50
2018-08-30T13:18:54.644Z,4.40
2018-08-30T13:21:23.105Z,5.10
2018-08-30T13:23:51.615Z,4.00
2018-08-30T13:26:20.947Z,4.53
2018-08-30T13:28:49.262Z,4.20
2018-08-30T13:31:17.565Z,3.73
2018-08-30T13:33:46.185Z,4.10
2018-08-30T13:36:14.392Z,3.83
2018-08-30T13:38:43.193Z,3.80
2018-08-30T13:41:11.801Z,3.73
2018-08-30T13:43:40.264Z,3.70
2018-08-30T13:46:08.654Z,4.37
2018-08-30T13:48:36.848Z,4.07
2018-08-30T13:51:05.463Z,4.30
2018-08-30T13:53:33.575Z,4.40
2018-08-30T13:56:02.221Z,5.10
2018-08-30T13:58:30.546Z,5.40
2018-08-30T14:00:59.481Z,5.27
2018-08-30T14:03:27.505Z,4.70
2018-08-30T14:05:56.615Z,5.23
2018-08-30T14:08:25.128Z,4.97
2018-08-30T14:10:53.741Z,5.20
2018-08-30T14:13:22.241Z,4.40
2018-08-30T14:15:50.309Z,4.37
2018-08-30T14:18:18.767Z,4.80
2018-08-30T14:20:47.080Z,4.37
2018-08-30T14:23:15.552Z,3.90
2018-08-30T14:25:43.917Z,5.10
2018-08-30T14:28:12.342Z,4.60
2018-08-30T14:30:40.726Z,3.90
2018-08-30T14:33:09.061Z,4.20
2018-08-30T14:35:37.378Z,4.70
2018-08-30T14:38:05.717Z,4.60
2018-08-30T14:40:34.893Z,4.63
2018-08-30T14:43:03.239Z,4.50
2018-08-30T14:45:31.700Z,4.23
2018-08-30T14:48:00.574Z,4.47
2018-08-30T14:50:29.047Z,4.20
2018-08-30T14:52:57.401Z,4.43
2018-08-30T14:55:25.748Z,4.83
2018-08-30T14:57:55.143Z,4.57
2018-08-30T15:00:23.643Z,4.40
2018-08-30T15:02:51.948Z,4.20
2018-08-30T15:05:20.567Z,4.00
2018-08-30T15:07:48.797Z,4.50
2018-08-30T15:10:17.186Z,3.30
2018-08-30T15:12:45.829Z,3.77
2018-08-30T15:15:14.253Z,3.73
2018-08-30T15:17:42.780Z,3.37
2018-08-30T15:20:11.243Z,3.27
2018-08-30T15:22:39.635Z,4.30
2018-08-30T15:25:08.137Z,3.80
2018-08-30T15:27:36.478Z,3.70
2018-08-30T15:30:05.087Z,3.20
2018-08-30T15:32:34.080Z,3.23
2018-08-30T15:35:03.731Z,2.80
2018-08-30T15:37:32.129Z,2.80
2018-08-30T15:40:00.484Z,3.27
2018-08-30T15:42:28.889Z,3.10
2018-08-30T15:44:58.017Z,3.83
2018-08-30T15:47:26.457Z,2.60
2018-08-30T15:49:54.898Z,2.80
2018-08-30T15:52:23.465Z,3.13
2018-08-30T15:54:51.908Z,3.03
2018-08-30T15:57:20.344Z,3.00
2018-08-30T15:59:48.726Z,3.70
2018-08-30T16:02:17.099Z,2.70
2018-08-30T16:04:45.475Z,2.60
2018-08-30T16:07:13.842Z,2.30
2018-08-30T16:09:42.219Z,2.50
2018-08-30T16:12:11.127Z,2.50
2018-08-30T16:14:39.557Z,2.77
2018-08-30T16:17:09.177Z,2.70
2018-08-30T16:19:37.529Z,2.87
2018-08-30T16:22:05.961Z,3.40
2018-08-30T16:24:34.326Z,2.97
2018-08-30T16:27:02.695Z,2.60
2018-08-30T16:29:31.129Z,2.70
2018-08-30T16:31:59.617Z,2.50
2018-08-30T16:34:30.528Z,2.87
2018-08-30T16:36:58.998Z,2.53
2018-08-30T16:39:27.386Z,2.47
2018-08-30T16:41:55.838Z,3.00
2018-08-30T16:44:24.291Z,2.60
2018-08-30T16:46:52.626Z,2.70
2018-08-30T16:49:20.982Z,2.50
2018-08-30T16:51:49.401Z,2.57
2018-08-30T16:54:17.807Z,3.10
2018-08-30T16:56:46.209Z,2.37
2018-08-30T16:59:14.742Z,2.50
2018-08-30T17:01:43.186Z,2.30
2018-08-30T17:04:11.516Z,2.20
2018-08-30T17:06:40.190Z,2.30
2018-08-30T17:09:09.028Z,2.87
2018-08-30T17:11:37.464Z,2.30
2018-08-30T17:14:05.920Z,2.23
2018-08-30T17:16:35.702Z,3.30
2018-08-30T17:19:17.130Z,2.87
2018-08-30T17:21:46.072Z,3.70
2018-08-30T17:24:14.497Z,2.63
2018-08-30T17:26:42.961Z,2.63
2018-08-30T17:29:11.349Z,3.10
2018-08-30T17:31:39.742Z,3.23
2018-08-30T17:34:09.686Z,3.07
2018-08-30T17:36:38.285Z,2.80
2018-08-30T17:39:08.198Z,3.00
2018-08-30T17:41:53.998Z,2.30
2018-08-30T17:44:22.464Z,2.50
2018-08-30T17:49:31.381Z,2.97
2018-08-30T17:51:59.882Z,2.57
2018-08-30T17:54:28.518Z,2.30
2018-08-30T17:56:57.023Z,2.40
2018-08-30T17:59:25.681Z,2.50
2018-08-30T18:01:54.192Z,2.50
2018-08-30T18:04:23.749Z,2.47
2018-08-30T18:06:52.202Z,2.80
2018-08-30T18:09:20.809Z,2.33
2018-08-30T18:11:51.557Z,3.13
2018-08-30T18:14:19.940Z,2.80
2018-08-30T18:16:49.050Z,2.77
2018-08-30T18:19:17.427Z,2.63
2018-08-30T18:21:45.876Z,2.90
2018-08-30T18:24:14.278Z,2.40
2018-08-30T18:26:43.721Z,3.00
2018-08-30T18:29:12.181Z,2.50
2018-08-30T18:31:40.688Z,3.10
2018-08-30T18:34:09.158Z,2.90
2018-08-30T18:36:38.169Z,2.93
2018-08-30T18:39:08.855Z,3.20
2018-08-30T18:41:37.680Z,2.63
2018-08-30T18:44:06.143Z,3.20
2018-08-30T18:46:34.856Z,3.03
2018-08-30T18:49:04.016Z,3.00
2018-08-30T18:51:32.448Z,3.33
2018-08-30T18:54:01.307Z,3.13
2018-08-30T18:56:29.735Z,3.33
2018-08-30T18:58:58.208Z,2.90
2018-08-30T19:01:26.603Z,2.50
2018-08-30T19:03:55.121Z,3.70
2018-08-30T19:06:23.479Z,2.97
2018-08-30T19:08:51.862Z,4.10
2018-08-30T19:11:20.236Z,2.90
2018-08-30T19:13:49.101Z,3.03
2018-08-30T19:16:22.810Z,3.37
2018-08-30T19:18:56.562Z,3.10
2018-08-30T19:21:24.976Z,3.57
2018-08-30T19:23:53.379Z,4.20
2018-08-30T19:26:22.417Z,3.33
2018-08-30T19:28:50.776Z,3.23
2018-08-30T19:31:20.234Z,3.30
2018-08-30T19:33:48.863Z,3.03
2018-08-30T19:36:23.420Z,3.90
2018-08-30T19:38:52.004Z,3.20
2018-08-30T19:41:21.955Z,3.47
2018-08-30T19:43:51.551Z,4.77
2018-08-30T19:46:20.757Z,5.13
2018-08-30T19:48:49.507Z,4.97
2018-08-30T19:51:17.830Z,3.50
2018-08-30T19:53:46.232Z,2.93
2018-08-30T19:56:15.908Z,3.20
2018-08-30T19:58:44.432Z,3.63
2018-08-30T20:01:12.834Z,3.60
2018-08-30T20:03:41.283Z,3.10
2018-08-30T20:06:09.632Z,3.37
2018-08-30T20:08:38.684Z,3.10
2018-08-30T20:11:07.156Z,3.30
2018-08-30T20:13:35.507Z,3.13
2018-08-30T20:16:03.972Z,3.60
2018-08-30T20:18:32.328Z,3.33
2018-08-30T20:21:00.718Z,3.40
2018-08-30T20:23:29.116Z,3.33
2018-08-30T20:25:58.238Z,2.80
2018-08-30T20:28:26.628Z,3.80
2018-08-30T20:30:54.988Z,3.20
2018-08-30T20:33:23.352Z,3.17
2018-08-30T20:35:51.784Z,3.30
2018-08-30T20:38:20.183Z,3.17
2018-08-30T20:40:48.629Z,4.53
2018-08-30T20:43:17.424Z,3.97
2018-08-30T20:45:47.052Z,4.50
2018-08-30T20:48:16.069Z,3.67
2018-08-30T20:50:44.521Z,3.63
2018-08-30T20:53:13.235Z,3.70
2018-08-30T20:55:42.574Z,4.10
2018-08-30T20:58:11.253Z,4.80
2018-08-30T21:00:39.683Z,3.20
2018-08-30T21:03:08.080Z,5.33
2018-08-30T21:05:37.055Z,4.27
2018-08-30T21:08:06.030Z,4.07
2018-08-30T21:10:34.548Z,3.80
2018-08-30T21:13:03.014Z,4.33
2018-08-30T21:15:35.479Z,3.60
2018-08-30T21:18:03.821Z,3.90
2018-08-30T21:20:32.194Z,4.27
2018-08-30T21:23:00.620Z,4.17
2018-08-30T21:25:29.022Z,4.13
2018-08-30T21:27:57.418Z,4.60
2018-08-30T21:30:25.852Z,5.13
2018-08-30T21:32:55.242Z,4.73
2018-08-30T21:35:23.914Z,4.67
2018-08-30T21:37:52.230Z,4.60
2018-08-30T21:40:20.750Z,4.90
2018-08-30T21:42:49.168Z,4.47
2018-08-30T21:45:17.534Z,5.10
2018-08-30T21:47:45.918Z,5.20
2018-08-30T21:50:15.105Z,4.20
2018-08-30T21:52:43.545Z,5.17
2018-08-30T21:55:12.003Z,4.50
2018-08-30T21:57:40.529Z,4.20
2018-08-30T22:00:09.030Z,4.10
2018-08-30T22:02:37.394Z,4.40
2018-08-30T22:05:05.752Z,4.67
2018-08-30T22:07:34.913Z,3.90
2018-08-30T22:10:03.264Z,4.73
2018-08-30T22:12:31.586Z,4.60
2018-08-30T22:14:59.918Z,4.10
2018-08-30T22:17:28.486Z,4.70
2018-08-30T22:19:56.818Z,4.00
2018-08-30T22:22:25.130Z,4.30
2018-08-30T22:24:53.472Z,4.70
2018-08-30T22:27:21.874Z,5.20
2018-08-30T22:29:50.229Z,5.00
2018-08-30T22:32:21.731Z,5.33
2018-08-30T22:34:50.102Z,4.70
2018-08-30T22:37:18.442Z,4.60
2018-08-30T22:39:46.852Z,4.83
2018-08-30T22:42:15.337Z,5.23
2018-08-30T22:44:43.678Z,5.33
2018-08-30T22:47:12.023Z,5.03
2018-08-30T22:49:40.390Z,5.27
2018-08-30T22:52:08.766Z,5.17
2018-08-30T22:54:37.098Z,5.40
2018-08-30T22:57:05.495Z,5.03
2018-08-30T22:59:33.839Z,5.10
2018-08-30T23:02:02.369Z,4.97
2018-08-30T23:04:30.880Z,4.97
2018-08-30T23:06:59.228Z,5.50
2018-08-30T23:09:27.521Z,5.50
2018-08-30T23:11:55.872Z,5.50
2018-08-30T23:14:24.182Z,5.37
2018-08-30T23:16:52.597Z,5.70
2018-08-30T23:19:20.918Z,4.80
2018-08-30T23:21:49.280Z,6.10
2018-08-30T23:24:17.615Z,5.23
2018-08-30T23:26:46.033Z,5.07
2018-08-30T23:29:14.397Z,5.53
2018-08-30T23:31:42.840Z,5.57
2018-08-30T23:34:11.198Z,5.73
2018-08-30T23:36:39.546Z,6.13
2018-08-30T23:39:09.868Z,5.67
2018-08-30T23:41:38.180Z,5.50
2018-08-30T23:44:06.624Z,6.03
2018-08-30T23:46:34.969Z,6.60
2018-08-30T23:49:03.317Z,5.90
2018-08-30T23:51:31.712Z,5.97
2018-08-30T23:54:00.080Z,5.73
2018-08-30T23:56:28.368Z,5.53
2018-08-30T23:59:07.841Z,6.13
